Bootsie B, — WDF9484 — position and weather

sailwx.info

Track history (hours):
 
Tides and Currents Weather Stations Pressure Air Temp Water Temp Dewpoint Dewpoint Depression Visibility Wind Speed Wind Dir Waves Ship Positions

Bootsie B,

Owner: Marquette Transp[ortation Co. LLC, Paducah, KY. More information available from US FCC via Universal Licensing System and Coast Guard Vessel Documentation Center.

Last reported at 2016-Jun-18 14:20 UTC. Time now 2016-Jun-27 07:46 UTC.
Position N 32°38' W 091°09'.
Warning: this ship's position is 8 days out of date.

Length 57 m; draft 2 m.

Type: Towing. MMSI: 367505630.

Date/timePositionNaut miles runAvg speedWind from/ knotsBaromVisibWave heightAir tempDewpointWater temp
2016-Jun-18 14:20N 32°38' W 091°09'4 4.7
2016-Jun-18 13:33N 32°35' W 091°07'4 4.2
2016-Jun-18 12:32N 32°30' W 091°07'4 4.6
2016-Jun-18 11:33N 32°27' W 091°04'4 4.3
2016-Jun-18 10:33N 32°25' W 090°60'4 3.6
2016-Jun-18 09:33N 32°21' W 090°58'4 4.1
2016-Jun-18 08:33N 32°19' W 090°54'4 4.5
2016-Jun-18 07:33N 32°16' W 090°58'4 4.5
2016-Jun-18 06:33N 32°12' W 090°59'4 4.3
2016-Jun-18 05:33N 32°08' W 091°01'5 4.5
2016-Jun-18 04:33N 32°08' W 091°06'67 3.7
2016-Jun-17 10:31N 31°06' W 091°36'5 3.5
2016-Jun-17 09:07N 31°01' W 091°36'3 4.5
2016-Jun-17 08:27N 30°59' W 091°39'7 3.6
2016-Jun-17 06:32N 30°55' W 091°33'11 3.4
2016-Jun-17 03:18N 30°44' W 091°33'26 1.5
2016-Jun-16 10:10N 30°24' W 091°13'0 0.0
2016-Jun-16 08:12N 30°24' W 091°13'0 0.0
2016-Jun-16 07:12N 30°24' W 091°13'0 0.0
2016-Jun-16 06:14N 30°24' W 091°13'58 2.7
2016-Jun-15 09:05N 29°57' W 090°14'0 0.3
2016-Jun-15 08:29N 29°57' W 090°14'0 0.0
2016-Jun-15 02:06N 29°57' W 090°14'  
2016-Jun-12 11:26N 31°57' W 091°12'8 8.7
2016-Jun-12 10:33N 32°01' W 091°04'7 6.8
2016-Jun-12 09:33N 32°08' W 091°05'7 7.5
2016-Jun-12 08:33N 32°13' W 090°59'8 7.9
2016-Jun-12 07:33N 32°21' W 090°55'1 1.1
2016-Jun-12 06:33N 32°21' W 090°57'7 3.6
2016-Jun-12 04:33N 32°26' W 091°03'8 8.2
2016-Jun-12 03:33N 32°34' W 091°06'  
Track history (hours):
 
Tides and Currents Weather Stations Pressure Air Temp Water Temp Dewpoint Dewpoint Depression Visibility Wind Speed Wind Dir Waves Ship Positions

Bootsie B,

Owner: Marquette Transp[ortation Co. LLC, Paducah, KY. More information available from US FCC via Universal Licensing System and Coast Guard Vessel Documentation Center.

Last reported at 2016-Jun-18 14:20 UTC. Time now 2016-Jun-27 07:46 UTC.
Position N 32°38' W 091°09'.
Warning: this ship's position is 8 days out of date.

Length 57 m; draft 2 m.

Type: Towing. MMSI: 367505630.

Date/timePositionNaut miles runAvg speedWind from/ knotsBaromVisibWave heightAir tempDewpointWater temp
2016-Jun-18 14:20N 32°38' W 091°09'4 4.7
2016-Jun-18 13:33N 32°35' W 091°07'4 4.2
2016-Jun-18 12:32N 32°30' W 091°07'4 4.6
2016-Jun-18 11:33N 32°27' W 091°04'4 4.3
2016-Jun-18 10:33N 32°25' W 090°60'4 3.6
2016-Jun-18 09:33N 32°21' W 090°58'4 4.1
2016-Jun-18 08:33N 32°19' W 090°54'4 4.5
2016-Jun-18 07:33N 32°16' W 090°58'4 4.5
2016-Jun-18 06:33N 32°12' W 090°59'4 4.3
2016-Jun-18 05:33N 32°08' W 091°01'5 4.5
2016-Jun-18 04:33N 32°08' W 091°06'67 3.7
2016-Jun-17 10:31N 31°06' W 091°36'5 3.5
2016-Jun-17 09:07N 31°01' W 091°36'3 4.5
2016-Jun-17 08:27N 30°59' W 091°39'7 3.6
2016-Jun-17 06:32N 30°55' W 091°33'11 3.4
2016-Jun-17 03:18N 30°44' W 091°33'26 1.5
2016-Jun-16 10:10N 30°24' W 091°13'0 0.0
2016-Jun-16 08:12N 30°24' W 091°13'0 0.0
2016-Jun-16 07:12N 30°24' W 091°13'0 0.0
2016-Jun-16 06:14N 30°24' W 091°13'58 2.7
2016-Jun-15 09:05N 29°57' W 090°14'0 0.3
2016-Jun-15 08:29N 29°57' W 090°14'0 0.0
2016-Jun-15 02:06N 29°57' W 090°14'  
2016-Jun-12 11:26N 31°57' W 091°12'8 8.7
2016-Jun-12 10:33N 32°01' W 091°04'7 6.8
2016-Jun-12 09:33N 32°08' W 091°05'7 7.5
2016-Jun-12 08:33N 32°13' W 090°59'8 7.9
2016-Jun-12 07:33N 32°21' W 090°55'1 1.1
2016-Jun-12 06:33N 32°21' W 090°57'7 3.6
2016-Jun-12 04:33N 32°26' W 091°03'8 8.2
2016-Jun-12 03:33N 32°34' W 091°06'  

Dump ship's entire track history